sensor_id;sensor_type;location;lat;lon;timestamp;P1;durP1;ratioP1;P2;durP2;ratioP2
11086;SDS011;5597;47.588;9.642;2022-08-11T00:00:36;3.10;;;1.60;;
11086;SDS011;5597;47.588;9.642;2022-08-11T00:03:09;2.10;;;1.67;;
11086;SDS011;5597;47.588;9.642;2022-08-11T00:05:46;1.90;;;1.80;;
11086;SDS011;5597;47.588;9.642;2022-08-11T00:08:22;2.03;;;1.80;;
11086;SDS011;5597;47.588;9.642;2022-08-11T00:10:53;1.53;;;1.43;;
11086;SDS011;5597;47.588;9.642;2022-08-11T00:13:21;2.00;;;1.80;;
11086;SDS011;5597;47.588;9.642;2022-08-11T00:15:54;2.60;;;1.73;;
11086;SDS011;5597;47.588;9.642;2022-08-11T00:18:20;2.20;;;1.70;;
11086;SDS011;5597;47.588;9.642;2022-08-11T00:20:46;3.30;;;1.70;;
11086;SDS011;5597;47.588;9.642;2022-08-11T00:23:16;1.80;;;1.60;;
11086;SDS011;5597;47.588;9.642;2022-08-11T00:25:47;1.70;;;1.60;;
11086;SDS011;5597;47.588;9.642;2022-08-11T00:28:32;2.70;;;1.63;;
11086;SDS011;5597;47.588;9.642;2022-08-11T00:31:05;3.03;;;1.80;;
11086;SDS011;5597;47.588;9.642;2022-08-11T00:35:59;1.77;;;1.67;;
11086;SDS011;5597;47.588;9.642;2022-08-11T00:38:28;2.03;;;1.70;;
11086;SDS011;5597;47.588;9.642;2022-08-11T00:41:15;2.00;;;1.80;;
11086;SDS011;5597;47.588;9.642;2022-08-11T00:49:59;2.90;;;1.80;;
11086;SDS011;5597;47.588;9.642;2022-08-11T00:55:15;3.00;;;1.90;;
11086;SDS011;5597;47.588;9.642;2022-08-11T01:00:32;2.17;;;1.97;;
11086;SDS011;5597;47.588;9.642;2022-08-11T01:06:02;2.13;;;1.80;;
11086;SDS011;5597;47.588;9.642;2022-08-11T01:14:24;2.70;;;1.70;;
11086;SDS011;5597;47.588;9.642;2022-08-11T01:25:49;1.70;;;1.60;;
11086;SDS011;5597;47.588;9.642;2022-08-11T01:43:07;2.23;;;2.03;;
11086;SDS011;5597;47.588;9.642;2022-08-11T01:46:14;2.70;;;1.87;;
11086;SDS011;5597;47.588;9.642;2022-08-11T01:51:57;2.93;;;2.03;;
11086;SDS011;5597;47.588;9.642;2022-08-11T01:54:43;2.00;;;1.90;;
11086;SDS011;5597;47.588;9.642;2022-08-11T02:00:21;2.20;;;1.80;;
11086;SDS011;5597;47.588;9.642;2022-08-11T02:02:57;3.07;;;2.30;;
11086;SDS011;5597;47.588;9.642;2022-08-11T02:10:57;2.80;;;1.90;;
11086;SDS011;5597;47.588;9.642;2022-08-11T02:14:15;2.83;;;1.90;;
11086;SDS011;5597;47.588;9.642;2022-08-11T02:19:43;2.07;;;1.87;;
11086;SDS011;5597;47.588;9.642;2022-08-11T02:23:03;2.07;;;1.93;;
11086;SDS011;5597;47.588;9.642;2022-08-11T02:26:19;3.40;;;2.13;;
11086;SDS011;5597;47.588;9.642;2022-08-11T02:34:20;2.80;;;2.10;;
11086;SDS011;5597;47.588;9.642;2022-08-11T02:36:57;2.20;;;2.00;;
11086;SDS011;5597;47.588;9.642;2022-08-11T02:39:41;3.10;;;2.30;;
11086;SDS011;5597;47.588;9.642;2022-08-11T02:42:22;2.67;;;2.20;;
11086;SDS011;5597;47.588;9.642;2022-08-11T02:50:41;3.23;;;2.57;;
11086;SDS011;5597;47.588;9.642;2022-08-11T03:07:40;2.17;;;2.00;;
11086;SDS011;5597;47.588;9.642;2022-08-11T03:13:15;3.03;;;2.20;;
11086;SDS011;5597;47.588;9.642;2022-08-11T03:19:02;2.30;;;2.10;;
11086;SDS011;5597;47.588;9.642;2022-08-11T03:21:41;2.67;;;2.30;;
11086;SDS011;5597;47.588;9.642;2022-08-11T03:30:14;2.83;;;2.40;;
11086;SDS011;5597;47.588;9.642;2022-08-11T03:33:04;2.80;;;2.47;;
11086;SDS011;5597;47.588;9.642;2022-08-11T03:36:09;4.10;;;2.40;;
11086;SDS011;5597;47.588;9.642;2022-08-11T03:38:44;2.63;;;2.37;;
11086;SDS011;5597;47.588;9.642;2022-08-11T03:47:11;2.30;;;2.10;;
11086;SDS011;5597;47.588;9.642;2022-08-11T03:58:49;2.43;;;2.23;;
11086;SDS011;5597;47.588;9.642;2022-08-11T04:10:31;2.50;;;2.30;;
11086;SDS011;5597;47.588;9.642;2022-08-11T04:27:45;2.83;;;2.63;;
11086;SDS011;5597;47.588;9.642;2022-08-11T04:33:29;3.00;;;2.57;;
11086;SDS011;5597;47.588;9.642;2022-08-11T04:36:40;2.40;;;2.20;;
11086;SDS011;5597;47.588;9.642;2022-08-11T04:45:38;4.50;;;2.70;;
11086;SDS011;5597;47.588;9.642;2022-08-11T04:54:04;5.80;;;3.30;;
11086;SDS011;5597;47.588;9.642;2022-08-11T04:57:19;3.07;;;2.77;;
11086;SDS011;5597;47.588;9.642;2022-08-11T05:00:11;3.27;;;2.77;;
11086;SDS011;5597;47.588;9.642;2022-08-11T05:13:33;4.50;;;3.33;;
11086;SDS011;5597;47.588;9.642;2022-08-11T05:16:28;3.37;;;2.70;;
11086;SDS011;5597;47.588;9.642;2022-08-11T05:19:19;2.83;;;2.53;;
11086;SDS011;5597;47.588;9.642;2022-08-11T05:22:07;3.57;;;2.80;;
11086;SDS011;5597;47.588;9.642;2022-08-11T05:25:02;4.20;;;2.90;;
11086;SDS011;5597;47.588;9.642;2022-08-11T05:31:02;3.53;;;2.97;;
11086;SDS011;5597;47.588;9.642;2022-08-11T05:34:00;3.37;;;2.80;;
11086;SDS011;5597;47.588;9.642;2022-08-11T05:36:52;4.53;;;2.80;;
11086;SDS011;5597;47.588;9.642;2022-08-11T05:39:32;3.00;;;2.70;;
11086;SDS011;5597;47.588;9.642;2022-08-11T05:42:22;3.73;;;2.63;;
11086;SDS011;5597;47.588;9.642;2022-08-11T05:45:12;6.23;;;3.10;;
11086;SDS011;5597;47.588;9.642;2022-08-11T05:47:58;3.17;;;2.83;;
11086;SDS011;5597;47.588;9.642;2022-08-11T05:50:58;4.53;;;2.90;;
11086;SDS011;5597;47.588;9.642;2022-08-11T05:53:44;2.77;;;2.57;;
11086;SDS011;5597;47.588;9.642;2022-08-11T05:56:33;2.70;;;2.50;;
11086;SDS011;5597;47.588;9.642;2022-08-11T05:59:11;2.60;;;2.40;;
11086;SDS011;5597;47.588;9.642;2022-08-11T06:01:38;2.83;;;2.60;;
11086;SDS011;5597;47.588;9.642;2022-08-11T06:04:07;3.33;;;2.73;;
11086;SDS011;5597;47.588;9.642;2022-08-11T06:09:15;3.50;;;2.83;;
11086;SDS011;5597;47.588;9.642;2022-08-11T06:11:47;3.93;;;2.93;;
11086;SDS011;5597;47.588;9.642;2022-08-11T06:14:14;2.93;;;2.73;;
11086;SDS011;5597;47.588;9.642;2022-08-11T06:16:40;3.33;;;2.80;;
11086;SDS011;5597;47.588;9.642;2022-08-11T06:19:06;4.37;;;2.87;;
11086;SDS011;5597;47.588;9.642;2022-08-11T06:21:33;3.30;;;2.87;;
11086;SDS011;5597;47.588;9.642;2022-08-11T06:24:02;2.93;;;2.73;;
11086;SDS011;5597;47.588;9.642;2022-08-11T06:26:35;3.33;;;2.60;;
11086;SDS011;5597;47.588;9.642;2022-08-11T06:29:02;3.70;;;2.90;;
11086;SDS011;5597;47.588;9.642;2022-08-11T06:31:29;2.67;;;2.27;;
11086;SDS011;5597;47.588;9.642;2022-08-11T06:44:31;4.17;;;2.90;;
11086;SDS011;5597;47.588;9.642;2022-08-11T06:47:11;2.40;;;2.20;;
11086;SDS011;5597;47.588;9.642;2022-08-11T06:49:44;3.43;;;2.60;;
11086;SDS011;5597;47.588;9.642;2022-08-11T06:52:30;2.47;;;2.27;;
11086;SDS011;5597;47.588;9.642;2022-08-11T06:55:05;2.40;;;2.20;;
11086;SDS011;5597;47.588;9.642;2022-08-11T06:58:15;3.43;;;2.47;;
11086;SDS011;5597;47.588;9.642;2022-08-11T07:01:06;3.23;;;2.50;;
11086;SDS011;5597;47.588;9.642;2022-08-11T07:03:39;2.20;;;2.10;;
11086;SDS011;5597;47.588;9.642;2022-08-11T07:06:23;2.33;;;2.13;;
11086;SDS011;5597;47.588;9.642;2022-08-11T07:14:56;3.33;;;2.40;;
11086;SDS011;5597;47.588;9.642;2022-08-11T07:17:49;2.77;;;2.50;;
11086;SDS011;5597;47.588;9.642;2022-08-11T07:20:39;2.53;;;2.23;;
11086;SDS011;5597;47.588;9.642;2022-08-11T07:23:24;2.57;;;2.27;;
11086;SDS011;5597;47.588;9.642;2022-08-11T07:26:14;3.20;;;2.50;;
11086;SDS011;5597;47.588;9.642;2022-08-11T07:29:00;3.20;;;2.57;;
11086;SDS011;5597;47.588;9.642;2022-08-11T07:34:24;2.93;;;2.73;;
11086;SDS011;5597;47.588;9.642;2022-08-11T07:37:01;3.10;;;2.80;;
11086;SDS011;5597;47.588;9.642;2022-08-11T07:39:35;2.70;;;2.50;;
11086;SDS011;5597;47.588;9.642;2022-08-11T07:42:06;3.00;;;2.63;;
11086;SDS011;5597;47.588;9.642;2022-08-11T07:44:38;2.70;;;2.50;;
11086;SDS011;5597;47.588;9.642;2022-08-11T07:47:23;2.57;;;2.37;;
11086;SDS011;5597;47.588;9.642;2022-08-11T07:50:08;2.30;;;2.10;;
11086;SDS011;5597;47.588;9.642;2022-08-11T07:52:53;2.57;;;2.37;;
11086;SDS011;5597;47.588;9.642;2022-08-11T07:55:21;4.13;;;2.90;;
11086;SDS011;5597;47.588;9.642;2022-08-11T07:57:52;2.57;;;2.37;;
11086;SDS011;5597;47.588;9.642;2022-08-11T08:00:58;2.50;;;2.30;;
11086;SDS011;5597;47.588;9.642;2022-08-11T08:03:42;2.50;;;2.30;;
11086;SDS011;5597;47.588;9.642;2022-08-11T08:06:27;2.50;;;2.30;;
11086;SDS011;5597;47.588;9.642;2022-08-11T08:09:15;2.43;;;2.23;;
11086;SDS011;5597;47.588;9.642;2022-08-11T08:12:03;4.37;;;2.50;;
11086;SDS011;5597;47.588;9.642;2022-08-11T08:14:50;2.80;;;2.50;;
11086;SDS011;5597;47.588;9.642;2022-08-11T08:17:36;2.60;;;2.40;;
11086;SDS011;5597;47.588;9.642;2022-08-11T08:20:38;2.40;;;2.20;;
11086;SDS011;5597;47.588;9.642;2022-08-11T08:23:08;3.47;;;2.50;;
11086;SDS011;5597;47.588;9.642;2022-08-11T08:25:35;2.67;;;2.40;;
11086;SDS011;5597;47.588;9.642;2022-08-11T08:28:14;2.53;;;2.33;;
11086;SDS011;5597;47.588;9.642;2022-08-11T08:30:42;2.87;;;2.40;;
11086;SDS011;5597;47.588;9.642;2022-08-11T08:33:18;2.60;;;2.40;;
11086;SDS011;5597;47.588;9.642;2022-08-11T08:35:46;2.83;;;2.47;;
11086;SDS011;5597;47.588;9.642;2022-08-11T08:38:36;3.47;;;2.77;;
11086;SDS011;5597;47.588;9.642;2022-08-11T08:41:23;3.10;;;2.90;;
11086;SDS011;5597;47.588;9.642;2022-08-11T08:43:53;3.53;;;2.50;;
11086;SDS011;5597;47.588;9.642;2022-08-11T08:46:24;3.00;;;2.70;;
11086;SDS011;5597;47.588;9.642;2022-08-11T08:48:57;2.90;;;2.30;;
11086;SDS011;5597;47.588;9.642;2022-08-11T08:51:25;2.73;;;2.50;;
11086;SDS011;5597;47.588;9.642;2022-08-11T08:54:05;3.43;;;2.63;;
11086;SDS011;5597;47.588;9.642;2022-08-11T08:56:33;2.37;;;2.17;;
11086;SDS011;5597;47.588;9.642;2022-08-11T08:59:03;3.27;;;2.50;;
11086;SDS011;5597;47.588;9.642;2022-08-11T09:01:30;2.87;;;2.67;;
11086;SDS011;5597;47.588;9.642;2022-08-11T09:04:03;3.30;;;3.00;;
11086;SDS011;5597;47.588;9.642;2022-08-11T09:06:32;4.30;;;3.00;;
11086;SDS011;5597;47.588;9.642;2022-08-11T09:09:03;3.33;;;2.97;;
11086;SDS011;5597;47.588;9.642;2022-08-11T09:11:32;2.80;;;2.60;;
11086;SDS011;5597;47.588;9.642;2022-08-11T09:14:16;3.40;;;3.10;;
11086;SDS011;5597;47.588;9.642;2022-08-11T09:16:44;2.70;;;2.50;;
11086;SDS011;5597;47.588;9.642;2022-08-11T09:19:15;3.10;;;2.73;;
11086;SDS011;5597;47.588;9.642;2022-08-11T09:21:43;2.90;;;2.60;;
11086;SDS011;5597;47.588;9.642;2022-08-11T09:24:30;4.97;;;2.53;;
11086;SDS011;5597;47.588;9.642;2022-08-11T09:27:14;3.43;;;2.70;;
11086;SDS011;5597;47.588;9.642;2022-08-11T09:29:40;2.80;;;2.60;;
11086;SDS011;5597;47.588;9.642;2022-08-11T09:32:05;3.00;;;2.70;;
11086;SDS011;5597;47.588;9.642;2022-08-11T09:34:33;2.93;;;2.50;;
11086;SDS011;5597;47.588;9.642;2022-08-11T09:37:01;4.53;;;3.20;;
11086;SDS011;5597;47.588;9.642;2022-08-11T09:39:47;3.37;;;2.83;;
11086;SDS011;5597;47.588;9.642;2022-08-11T09:42:31;3.60;;;2.63;;
11086;SDS011;5597;47.588;9.642;2022-08-11T09:45:15;3.43;;;2.60;;
11086;SDS011;5597;47.588;9.642;2022-08-11T09:47:41;2.80;;;2.60;;
11086;SDS011;5597;47.588;9.642;2022-08-11T09:50:08;3.27;;;2.83;;
11086;SDS011;5597;47.588;9.642;2022-08-11T09:52:35;3.90;;;3.10;;
11086;SDS011;5597;47.588;9.642;2022-08-11T09:55:03;2.90;;;2.70;;
11086;SDS011;5597;47.588;9.642;2022-08-11T09:57:35;3.07;;;2.77;;
11086;SDS011;5597;47.588;9.642;2022-08-11T10:00:31;3.10;;;2.80;;
11086;SDS011;5597;47.588;9.642;2022-08-11T10:03:02;3.40;;;2.90;;
11086;SDS011;5597;47.588;9.642;2022-08-11T10:05:31;4.13;;;2.60;;
11086;SDS011;5597;47.588;9.642;2022-08-11T10:08:17;4.47;;;3.07;;
11086;SDS011;5597;47.588;9.642;2022-08-11T10:10:43;3.13;;;2.90;;
11086;SDS011;5597;47.588;9.642;2022-08-11T10:13:15;4.23;;;2.93;;
11086;SDS011;5597;47.588;9.642;2022-08-11T10:15:45;3.20;;;2.90;;
11086;SDS011;5597;47.588;9.642;2022-08-11T10:18:14;3.17;;;2.87;;
11086;SDS011;5597;47.588;9.642;2022-08-11T10:21:02;3.23;;;2.60;;
11086;SDS011;5597;47.588;9.642;2022-08-11T10:23:34;2.63;;;2.43;;
11086;SDS011;5597;47.588;9.642;2022-08-11T10:26:20;2.70;;;2.50;;
11086;SDS011;5597;47.588;9.642;2022-08-11T10:29:06;2.90;;;2.67;;
11086;SDS011;5597;47.588;9.642;2022-08-11T10:31:53;3.97;;;2.97;;
11086;SDS011;5597;47.588;9.642;2022-08-11T10:34:38;4.80;;;2.63;;
11086;SDS011;5597;47.588;9.642;2022-08-11T10:37:05;4.97;;;2.63;;
11086;SDS011;5597;47.588;9.642;2022-08-11T10:39:31;3.40;;;2.70;;
11086;SDS011;5597;47.588;9.642;2022-08-11T10:41:58;3.30;;;3.00;;
11086;SDS011;5597;47.588;9.642;2022-08-11T10:44:44;4.10;;;3.17;;
11086;SDS011;5597;47.588;9.642;2022-08-11T10:47:14;3.50;;;3.20;;
11086;SDS011;5597;47.588;9.642;2022-08-11T10:49:59;3.17;;;2.73;;
11086;SDS011;5597;47.588;9.642;2022-08-11T10:52:50;4.20;;;2.77;;
11086;SDS011;5597;47.588;9.642;2022-08-11T10:55:36;3.03;;;2.80;;
11086;SDS011;5597;47.588;9.642;2022-08-11T10:58:21;3.10;;;2.80;;
11086;SDS011;5597;47.588;9.642;2022-08-11T11:01:07;2.83;;;2.60;;
11086;SDS011;5597;47.588;9.642;2022-08-11T11:03:34;2.83;;;2.60;;
11086;SDS011;5597;47.588;9.642;2022-08-11T11:06:08;3.43;;;2.53;;
11086;SDS011;5597;47.588;9.642;2022-08-11T11:08:51;3.23;;;2.60;;
11086;SDS011;5597;47.588;9.642;2022-08-11T11:11:22;3.77;;;2.90;;
11086;SDS011;5597;47.588;9.642;2022-08-11T11:14:09;3.33;;;2.93;;
11086;SDS011;5597;47.588;9.642;2022-08-11T11:16:59;3.53;;;2.70;;
11086;SDS011;5597;47.588;9.642;2022-08-11T11:19:35;3.43;;;2.60;;
11086;SDS011;5597;47.588;9.642;2022-08-11T11:22:03;2.90;;;2.60;;
11086;SDS011;5597;47.588;9.642;2022-08-11T11:24:59;3.03;;;2.73;;
11086;SDS011;5597;47.588;9.642;2022-08-11T11:30:12;3.97;;;2.60;;
11086;SDS011;5597;47.588;9.642;2022-08-11T11:32:43;2.90;;;2.60;;
11086;SDS011;5597;47.588;9.642;2022-08-11T11:35:35;3.17;;;2.80;;
11086;SDS011;5597;47.588;9.642;2022-08-11T11:38:11;3.97;;;3.03;;
11086;SDS011;5597;47.588;9.642;2022-08-11T11:40:37;3.40;;;2.60;;
11086;SDS011;5597;47.588;9.642;2022-08-11T11:43:04;3.40;;;2.70;;
11086;SDS011;5597;47.588;9.642;2022-08-11T11:45:30;3.43;;;2.57;;
11086;SDS011;5597;47.588;9.642;2022-08-11T11:47:58;3.17;;;2.70;;
11086;SDS011;5597;47.588;9.642;2022-08-11T11:50:26;2.90;;;2.70;;
11086;SDS011;5597;47.588;9.642;2022-08-11T11:52:58;2.70;;;2.50;;
11086;SDS011;5597;47.588;9.642;2022-08-11T11:55:25;3.50;;;2.57;;
11086;SDS011;5597;47.588;9.642;2022-08-11T11:57:53;3.20;;;2.90;;
11086;SDS011;5597;47.588;9.642;2022-08-11T12:00:39;2.77;;;2.57;;
11086;SDS011;5597;47.588;9.642;2022-08-11T12:03:24;3.60;;;2.73;;
11086;SDS011;5597;47.588;9.642;2022-08-11T12:05:51;3.63;;;3.00;;
11086;SDS011;5597;47.588;9.642;2022-08-11T12:08:17;2.83;;;2.63;;
11086;SDS011;5597;47.588;9.642;2022-08-11T12:10:54;5.37;;;2.80;;
11086;SDS011;5597;47.588;9.642;2022-08-11T12:13:43;4.00;;;2.93;;
11086;SDS011;5597;47.588;9.642;2022-08-11T12:16:12;2.83;;;2.50;;
11086;SDS011;5597;47.588;9.642;2022-08-11T12:18:39;2.97;;;2.77;;
11086;SDS011;5597;47.588;9.642;2022-08-11T12:21:06;3.70;;;2.63;;
11086;SDS011;5597;47.588;9.642;2022-08-11T12:23:34;3.03;;;2.73;;
11086;SDS011;5597;47.588;9.642;2022-08-11T12:26:20;4.87;;;2.63;;
11086;SDS011;5597;47.588;9.642;2022-08-11T12:29:07;4.03;;;2.70;;
11086;SDS011;5597;47.588;9.642;2022-08-11T12:31:35;3.43;;;2.70;;
11086;SDS011;5597;47.588;9.642;2022-08-11T12:34:09;3.73;;;2.63;;
11086;SDS011;5597;47.588;9.642;2022-08-11T12:36:37;3.33;;;2.70;;
11086;SDS011;5597;47.588;9.642;2022-08-11T12:39:06;3.50;;;2.80;;
11086;SDS011;5597;47.588;9.642;2022-08-11T12:41:34;2.90;;;2.70;;
11086;SDS011;5597;47.588;9.642;2022-08-11T12:44:22;2.70;;;2.47;;
11086;SDS011;5597;47.588;9.642;2022-08-11T12:47:09;3.53;;;2.87;;
11086;SDS011;5597;47.588;9.642;2022-08-11T12:49:40;2.90;;;2.50;;
11086;SDS011;5597;47.588;9.642;2022-08-11T12:52:31;2.83;;;2.63;;
11086;SDS011;5597;47.588;9.642;2022-08-11T12:55:02;3.77;;;2.93;;
11086;SDS011;5597;47.588;9.642;2022-08-11T12:57:42;2.87;;;2.53;;
11086;SDS011;5597;47.588;9.642;2022-08-11T13:00:29;2.93;;;2.53;;
11086;SDS011;5597;47.588;9.642;2022-08-11T13:03:17;2.83;;;2.57;;
11086;SDS011;5597;47.588;9.642;2022-08-11T13:06:03;3.10;;;2.80;;
11086;SDS011;5597;47.588;9.642;2022-08-11T13:08:33;3.07;;;2.73;;
11086;SDS011;5597;47.588;9.642;2022-08-11T13:11:01;4.13;;;2.53;;
11086;SDS011;5597;47.588;9.642;2022-08-11T13:13:48;3.40;;;2.57;;
11086;SDS011;5597;47.588;9.642;2022-08-11T13:16:16;2.97;;;2.77;;
11086;SDS011;5597;47.588;9.642;2022-08-11T13:18:42;3.00;;;2.70;;
11086;SDS011;5597;47.588;9.642;2022-08-11T13:21:09;2.80;;;2.60;;
11086;SDS011;5597;47.588;9.642;2022-08-11T13:23:37;2.93;;;2.60;;
11086;SDS011;5597;47.588;9.642;2022-08-11T13:26:04;4.00;;;2.60;;
11086;SDS011;5597;47.588;9.642;2022-08-11T13:28:32;2.70;;;2.50;;
11086;SDS011;5597;47.588;9.642;2022-08-11T13:31:00;3.00;;;2.57;;
11086;SDS011;5597;47.588;9.642;2022-08-11T13:33:42;3.70;;;2.60;;
11086;SDS011;5597;47.588;9.642;2022-08-11T13:36:10;4.03;;;2.60;;
11086;SDS011;5597;47.588;9.642;2022-08-11T13:38:40;2.80;;;2.60;;
11086;SDS011;5597;47.588;9.642;2022-08-11T13:41:07;3.03;;;2.77;;
11086;SDS011;5597;47.588;9.642;2022-08-11T13:43:54;4.17;;;2.97;;
11086;SDS011;5597;47.588;9.642;2022-08-11T13:46:21;2.77;;;2.57;;
11086;SDS011;5597;47.588;9.642;2022-08-11T13:48:48;2.93;;;2.63;;
11086;SDS011;5597;47.588;9.642;2022-08-11T13:51:16;3.20;;;2.90;;
11086;SDS011;5597;47.588;9.642;2022-08-11T13:53:56;2.60;;;2.40;;
11086;SDS011;5597;47.588;9.642;2022-08-11T13:56:24;2.67;;;2.47;;
11086;SDS011;5597;47.588;9.642;2022-08-11T13:58:51;2.70;;;2.50;;
11086;SDS011;5597;47.588;9.642;2022-08-11T14:01:18;3.00;;;2.50;;
11086;SDS011;5597;47.588;9.642;2022-08-11T14:03:45;2.73;;;2.47;;
11086;SDS011;5597;47.588;9.642;2022-08-11T14:06:14;2.53;;;2.33;;
11086;SDS011;5597;47.588;9.642;2022-08-11T14:08:42;2.70;;;2.50;;
11086;SDS011;5597;47.588;9.642;2022-08-11T14:11:10;3.67;;;2.53;;
11086;SDS011;5597;47.588;9.642;2022-08-11T14:13:55;3.03;;;2.60;;
11086;SDS011;5597;47.588;9.642;2022-08-11T14:16:26;2.60;;;2.40;;
11086;SDS011;5597;47.588;9.642;2022-08-11T14:18:56;3.03;;;2.70;;
11086;SDS011;5597;47.588;9.642;2022-08-11T14:21:26;2.97;;;2.70;;
11086;SDS011;5597;47.588;9.642;2022-08-11T14:24:12;3.37;;;2.60;;
11086;SDS011;5597;47.588;9.642;2022-08-11T14:26:41;2.63;;;2.43;;
11086;SDS011;5597;47.588;9.642;2022-08-11T14:29:15;3.23;;;2.30;;
11086;SDS011;5597;47.588;9.642;2022-08-11T14:31:46;2.60;;;2.40;;
11086;SDS011;5597;47.588;9.642;2022-08-11T14:34:23;2.83;;;2.63;;
11086;SDS011;5597;47.588;9.642;2022-08-11T14:36:53;3.60;;;2.40;;
11086;SDS011;5597;47.588;9.642;2022-08-11T14:39:25;3.00;;;2.40;;
11086;SDS011;5597;47.588;9.642;2022-08-11T14:42:01;3.20;;;2.60;;
11086;SDS011;5597;47.588;9.642;2022-08-11T14:44:47;2.93;;;2.60;;
11086;SDS011;5597;47.588;9.642;2022-08-11T14:47:39;2.70;;;2.50;;
11086;SDS011;5597;47.588;9.642;2022-08-11T14:50:11;2.80;;;2.50;;
11086;SDS011;5597;47.588;9.642;2022-08-11T14:52:44;2.80;;;2.50;;
11086;SDS011;5597;47.588;9.642;2022-08-11T14:55:19;2.83;;;2.63;;
11086;SDS011;5597;47.588;9.642;2022-08-11T14:58:04;3.77;;;2.77;;
11086;SDS011;5597;47.588;9.642;2022-08-11T15:00:34;2.70;;;2.50;;
11086;SDS011;5597;47.588;9.642;2022-08-11T15:03:00;3.07;;;2.73;;
11086;SDS011;5597;47.588;9.642;2022-08-11T15:05:34;4.23;;;2.70;;
11086;SDS011;5597;47.588;9.642;2022-08-11T15:08:03;3.13;;;2.50;;
11086;SDS011;5597;47.588;9.642;2022-08-11T15:10:29;2.93;;;2.57;;
11086;SDS011;5597;47.588;9.642;2022-08-11T15:12:55;3.37;;;2.73;;
11086;SDS011;5597;47.588;9.642;2022-08-11T15:15:21;3.20;;;2.90;;
11086;SDS011;5597;47.588;9.642;2022-08-11T15:18:12;2.80;;;2.60;;
11086;SDS011;5597;47.588;9.642;2022-08-11T15:20:42;5.10;;;2.60;;
11086;SDS011;5597;47.588;9.642;2022-08-11T15:23:27;5.53;;;2.73;;
11086;SDS011;5597;47.588;9.642;2022-08-11T15:28:39;3.13;;;2.77;;
11086;SDS011;5597;47.588;9.642;2022-08-11T15:31:28;2.63;;;2.43;;
11086;SDS011;5597;47.588;9.642;2022-08-11T15:34:14;2.80;;;2.50;;
11086;SDS011;5597;47.588;9.642;2022-08-11T15:37:08;2.70;;;2.50;;
11086;SDS011;5597;47.588;9.642;2022-08-11T15:40:03;3.53;;;2.60;;
11086;SDS011;5597;47.588;9.642;2022-08-11T15:43:00;3.17;;;2.80;;
11086;SDS011;5597;47.588;9.642;2022-08-11T15:46:46;3.00;;;2.70;;
11086;SDS011;5597;47.588;9.642;2022-08-11T15:49:02;3.13;;;2.53;;
11086;SDS011;5597;47.588;9.642;2022-08-11T15:51:36;2.83;;;2.63;;
11086;SDS011;5597;47.588;9.642;2022-08-11T15:54:07;3.40;;;2.47;;
11086;SDS011;5597;47.588;9.642;2022-08-11T15:56:36;4.13;;;2.50;;
11086;SDS011;5597;47.588;9.642;2022-08-11T15:59:06;2.77;;;2.50;;
11086;SDS011;5597;47.588;9.642;2022-08-11T16:01:52;2.83;;;2.63;;
11086;SDS011;5597;47.588;9.642;2022-08-11T16:04:54;3.20;;;2.90;;
11086;SDS011;5597;47.588;9.642;2022-08-11T16:07:23;3.63;;;2.70;;
11086;SDS011;5597;47.588;9.642;2022-08-11T16:09:59;2.70;;;2.50;;
11086;SDS011;5597;47.588;9.642;2022-08-11T16:12:39;4.37;;;2.60;;
11086;SDS011;5597;47.588;9.642;2022-08-11T16:15:27;5.30;;;3.07;;
11086;SDS011;5597;47.588;9.642;2022-08-11T16:18:12;3.40;;;3.10;;
11086;SDS011;5597;47.588;9.642;2022-08-11T16:20:42;3.97;;;2.87;;
11086;SDS011;5597;47.588;9.642;2022-08-11T16:23:08;3.73;;;2.63;;
11086;SDS011;5597;47.588;9.642;2022-08-11T16:25:35;4.87;;;2.93;;
11086;SDS011;5597;47.588;9.642;2022-08-11T16:28:01;2.97;;;2.77;;
11086;SDS011;5597;47.588;9.642;2022-08-11T16:30:30;3.83;;;2.60;;
11086;SDS011;5597;47.588;9.642;2022-08-11T16:32:57;3.20;;;2.90;;
11086;SDS011;5597;47.588;9.642;2022-08-11T16:35:24;3.13;;;2.93;;
11086;SDS011;5597;47.588;9.642;2022-08-11T16:38:11;3.90;;;2.73;;
11086;SDS011;5597;47.588;9.642;2022-08-11T16:40:56;4.37;;;2.93;;
11086;SDS011;5597;47.588;9.642;2022-08-11T16:43:27;3.47;;;2.50;;
11086;SDS011;5597;47.588;9.642;2022-08-11T16:46:14;5.20;;;2.90;;
11086;SDS011;5597;47.588;9.642;2022-08-11T16:49:01;2.70;;;2.50;;
11086;SDS011;5597;47.588;9.642;2022-08-11T16:51:29;3.40;;;3.10;;
11086;SDS011;5597;47.588;9.642;2022-08-11T16:53:56;3.60;;;2.87;;
11086;SDS011;5597;47.588;9.642;2022-08-11T16:56:23;2.53;;;2.33;;
11086;SDS011;5597;47.588;9.642;2022-08-11T16:58:55;3.17;;;2.87;;
11086;SDS011;5597;47.588;9.642;2022-08-11T17:01:40;3.80;;;2.67;;
11086;SDS011;5597;47.588;9.642;2022-08-11T17:04:18;4.23;;;3.37;;
11086;SDS011;5597;47.588;9.642;2022-08-11T17:07:06;3.10;;;2.73;;
11086;SDS011;5597;47.588;9.642;2022-08-11T17:09:51;3.87;;;2.77;;
11086;SDS011;5597;47.588;9.642;2022-08-11T17:12:37;3.63;;;2.80;;
11086;SDS011;5597;47.588;9.642;2022-08-11T17:15:24;3.00;;;2.70;;
11086;SDS011;5597;47.588;9.642;2022-08-11T17:18:10;3.27;;;2.97;;
11086;SDS011;5597;47.588;9.642;2022-08-11T17:20:59;3.23;;;2.93;;
11086;SDS011;5597;47.588;9.642;2022-08-11T17:23:28;5.13;;;2.97;;
11086;SDS011;5597;47.588;9.642;2022-08-11T17:26:11;2.70;;;2.50;;
11086;SDS011;5597;47.588;9.642;2022-08-11T17:28:39;2.70;;;2.50;;
11086;SDS011;5597;47.588;9.642;2022-08-11T17:31:06;3.80;;;3.50;;
11086;SDS011;5597;47.588;9.642;2022-08-11T17:33:51;5.37;;;3.00;;
11086;SDS011;5597;47.588;9.642;2022-08-11T17:36:38;2.90;;;2.70;;
11086;SDS011;5597;47.588;9.642;2022-08-11T17:39:06;3.03;;;2.50;;
11086;SDS011;5597;47.588;9.642;2022-08-11T17:41:33;4.30;;;2.80;;
11086;SDS011;5597;47.588;9.642;2022-08-11T17:44:18;3.80;;;3.13;;
11086;SDS011;5597;47.588;9.642;2022-08-11T17:47:03;3.20;;;2.90;;
11086;SDS011;5597;47.588;9.642;2022-08-11T17:49:48;3.63;;;3.10;;
11086;SDS011;5597;47.588;9.642;2022-08-11T17:52:16;3.10;;;2.70;;
11086;SDS011;5597;47.588;9.642;2022-08-11T17:55:00;4.33;;;2.80;;
11086;SDS011;5597;47.588;9.642;2022-08-11T17:57:46;4.63;;;2.93;;
11086;SDS011;5597;47.588;9.642;2022-08-11T18:00:31;3.20;;;2.90;;
11086;SDS011;5597;47.588;9.642;2022-08-11T18:02:56;3.33;;;2.83;;
11086;SDS011;5597;47.588;9.642;2022-08-11T18:05:43;3.60;;;3.20;;
11086;SDS011;5597;47.588;9.642;2022-08-11T18:08:11;3.50;;;3.07;;
11086;SDS011;5597;47.588;9.642;2022-08-11T18:10:56;4.57;;;3.00;;
11086;SDS011;5597;47.588;9.642;2022-08-11T18:13:42;3.13;;;2.83;;
11086;SDS011;5597;47.588;9.642;2022-08-11T18:16:28;3.73;;;2.70;;
11086;SDS011;5597;47.588;9.642;2022-08-11T18:19:12;3.70;;;2.80;;
11086;SDS011;5597;47.588;9.642;2022-08-11T18:21:59;3.27;;;2.97;;
11086;SDS011;5597;47.588;9.642;2022-08-11T18:25:06;4.13;;;3.30;;
11086;SDS011;5597;47.588;9.642;2022-08-11T18:27:54;3.30;;;3.00;;
11086;SDS011;5597;47.588;9.642;2022-08-11T18:30:41;3.20;;;2.90;;
11086;SDS011;5597;47.588;9.642;2022-08-11T18:33:29;4.00;;;2.77;;
11086;SDS011;5597;47.588;9.642;2022-08-11T18:36:21;2.70;;;2.50;;
11086;SDS011;5597;47.588;9.642;2022-08-11T18:39:11;4.87;;;3.03;;
11086;SDS011;5597;47.588;9.642;2022-08-11T18:41:57;3.10;;;2.80;;
11086;SDS011;5597;47.588;9.642;2022-08-11T18:44:44;3.87;;;3.10;;
11086;SDS011;5597;47.588;9.642;2022-08-11T18:47:30;3.90;;;3.17;;
11086;SDS011;5597;47.588;9.642;2022-08-11T18:50:15;3.33;;;3.03;;
11086;SDS011;5597;47.588;9.642;2022-08-11T18:53:01;3.10;;;2.77;;
11086;SDS011;5597;47.588;9.642;2022-08-11T18:55:48;2.93;;;2.73;;
11086;SDS011;5597;47.588;9.642;2022-08-11T18:58:34;4.13;;;2.80;;
11086;SDS011;5597;47.588;9.642;2022-08-11T19:01:21;3.70;;;2.80;;
11086;SDS011;5597;47.588;9.642;2022-08-11T19:04:06;3.70;;;2.70;;
11086;SDS011;5597;47.588;9.642;2022-08-11T19:06:53;3.70;;;3.07;;
11086;SDS011;5597;47.588;9.642;2022-08-11T19:09:41;2.83;;;2.63;;
11086;SDS011;5597;47.588;9.642;2022-08-11T19:12:33;4.97;;;2.93;;
11086;SDS011;5597;47.588;9.642;2022-08-11T19:15:21;5.57;;;3.17;;
11086;SDS011;5597;47.588;9.642;2022-08-11T19:18:06;3.30;;;3.00;;
11086;SDS011;5597;47.588;9.642;2022-08-11T19:20:53;2.87;;;2.67;;